DAL918 KATL-KJFK
Flight info
| Callsign | DAL918 |
|---|---|
| Flight time | 1h 47m |
| Altitude | 37000 |
| Route | PHIIL3 HRTWL Q64 SAWED Q108 SIE CAMRN5 |
| Aircraft | A320/M-SDE3FGHIRWY/LB1 |
Departure
| Time | 2026-05-07 00:19 |
|---|---|
| Airport | Hartsfield Jackson Atlanta International Airport (KATL) |
Arrival
| Time | 2026-05-07 02:06 |
|---|---|
| Airport | John F. Kennedy International Airport (KJFK) |
| Time | Latitude | Longitude | Altitude | Speed | Heading |
|---|---|---|---|---|---|
| 2026-05-06 23:32 | 33.63939 | -84.42514 | 1007 ft | 0 kts | 275° |
| 2026-05-07 00:09 | 33.63938 | -84.42507 | 1006 ft | 3 kts | 277° |
| 2026-05-07 00:09 | 33.63935 | -84.42483 | 1006 ft | 3 kts | 285° |
| 2026-05-07 00:09 | 33.63929 | -84.42460 | 1006 ft | 3 kts | 294° |
| 2026-05-07 00:10 | 33.63920 | -84.42439 | 1006 ft | 3 kts | 296° |
| 2026-05-07 00:10 | 33.63913 | -84.42419 | 1006 ft | 3 kts | 258° |
| 2026-05-07 00:10 | 33.63903 | -84.42417 | 1006 ft | 3 kts | 185° |
| 2026-05-07 00:10 | 33.63902 | -84.42417 | 1006 ft | 0 kts | 180° |
| 2026-05-07 00:12 | 33.63899 | -84.42417 | 1006 ft | 1 kts | 180° |
| 2026-05-07 00:13 | 33.63882 | -84.42417 | 1006 ft | 5 kts | 180° |
| 2026-05-07 00:13 | 33.63826 | -84.42417 | 1006 ft | 11 kts | 180° |
| 2026-05-07 00:13 | 33.63773 | -84.42417 | 1007 ft | 0 kts | 180° |
| 2026-05-07 00:13 | 33.63761 | -84.42417 | 1007 ft | 0 kts | 180° |
| 2026-05-07 00:14 | 33.63751 | -84.42417 | 1007 ft | 4 kts | 180° |
| 2026-05-07 00:14 | 33.63699 | -84.42417 | 1007 ft | 10 kts | 180° |
| 2026-05-07 00:14 | 33.63620 | -84.42416 | 1007 ft | 12 kts | 173° |
| 2026-05-07 00:15 | 33.63581 | -84.42347 | 1007 ft | 9 kts | 89° |
| 2026-05-07 00:15 | 33.63581 | -84.42306 | 1007 ft | 3 kts | 89° |
| 2026-05-07 00:15 | 33.63581 | -84.42256 | 1007 ft | 9 kts | 90° |
| 2026-05-07 00:15 | 33.63581 | -84.42158 | 1007 ft | 15 kts | 90° |
| 2026-05-07 00:16 | 33.63581 | -84.42009 | 1007 ft | 21 kts | 90° |
| 2026-05-07 00:16 | 33.63581 | -84.41810 | 1006 ft | 25 kts | 90° |
| 2026-05-07 00:16 | 33.63581 | -84.41587 | 1006 ft | 28 kts | 90° |
| 2026-05-07 00:16 | 33.63581 | -84.41341 | 1005 ft | 31 kts | 89° |
| 2026-05-07 00:17 | 33.63581 | -84.41118 | 1006 ft | 20 kts | 87° |
| 2026-05-07 00:17 | 33.63580 | -84.40956 | 1006 ft | 14 kts | 95° |
| 2026-05-07 00:17 | 33.63493 | -84.40922 | 1007 ft | 17 kts | 211° |
| 2026-05-07 00:17 | 33.63472 | -84.40978 | 1007 ft | 0 kts | 266° |
| 2026-05-07 00:18 | 33.63471 | -84.41128 | 1005 ft | 54 kts | 270° |
| 2026-05-07 00:18 | 33.63472 | -84.41862 | 1007 ft | 120 kts | 270° |
| 2026-05-07 00:18 | 33.63475 | -84.43073 | 1142 ft | 158 kts | 269° |
| 2026-05-07 00:19 | 33.63487 | -84.44386 | 1823 ft | 157 kts | 265° |
| 2026-05-07 00:19 | 33.63468 | -84.45695 | 2581 ft | 157 kts | 264° |
| 2026-05-07 00:19 | 33.63431 | -84.47042 | 3129 ft | 170 kts | 258° |
| 2026-05-07 00:19 | 33.63029 | -84.48441 | 3472 ft | 190 kts | 240° |
| 2026-05-07 00:20 | 33.62380 | -84.49947 | 3916 ft | 215 kts | 241° |
| 2026-05-07 00:20 | 33.61663 | -84.51636 | 4440 ft | 237 kts | 242° |
| 2026-05-07 00:20 | 33.60903 | -84.53439 | 5274 ft | 246 kts | 243° |
| 2026-05-07 00:20 | 33.60129 | -84.55293 | 6259 ft | 249 kts | 243° |
| 2026-05-07 00:21 | 33.59126 | -84.56999 | 7167 ft | 254 kts | 225° |
| 2026-05-07 00:21 | 33.57619 | -84.58141 | 8093 ft | 263 kts | 205° |
| 2026-05-07 00:21 | 33.55775 | -84.58502 | 8980 ft | 276 kts | 186° |
| 2026-05-07 00:21 | 33.53849 | -84.58499 | 9923 ft | 278 kts | 186° |
| 2026-05-07 00:22 | 33.51903 | -84.58484 | 10772 ft | 281 kts | 186° |
| 2026-05-07 00:22 | 33.49963 | -84.58464 | 11598 ft | 285 kts | 184° |
| 2026-05-07 00:22 | 33.47988 | -84.57910 | 12407 ft | 305 kts | 159° |
| 2026-05-07 00:22 | 33.46343 | -84.56183 | 13144 ft | 331 kts | 131° |
| 2026-05-07 00:23 | 33.45388 | -84.53529 | 13401 ft | 367 kts | 107° |
| 2026-05-07 00:23 | 33.45066 | -84.50429 | 13901 ft | 383 kts | 95° |
| 2026-05-07 00:23 | 33.45093 | -84.47208 | 14525 ft | 391 kts | 89° |
| 2026-05-07 00:23 | 33.45272 | -84.43932 | 15180 ft | 397 kts | 87° |
| 2026-05-07 00:24 | 33.45464 | -84.40609 | 15815 ft | 402 kts | 88° |
| 2026-05-07 00:24 | 33.45600 | -84.37249 | 16501 ft | 407 kts | 89° |
| 2026-05-07 00:24 | 33.45814 | -84.33857 | 17144 ft | 412 kts | 82° |
| 2026-05-07 00:24 | 33.46414 | -84.30480 | 17796 ft | 416 kts | 72° |
| 2026-05-07 00:25 | 33.47235 | -84.27142 | 18454 ft | 420 kts | 71° |
| 2026-05-07 00:25 | 33.48076 | -84.23778 | 19027 ft | 424 kts | 71° |
| 2026-05-07 00:25 | 33.48936 | -84.20382 | 19584 ft | 428 kts | 70° |
| 2026-05-07 00:25 | 33.49515 | -84.18115 | 19951 ft | 431 kts | 70° |
| 2026-05-07 00:26 | 33.50696 | -84.13477 | 20682 ft | 438 kts | 70° |
| 2026-05-07 00:26 | 33.51589 | -84.09963 | 21222 ft | 443 kts | 70° |
| 2026-05-07 00:26 | 33.52489 | -84.06415 | 21758 ft | 448 kts | 70° |
| 2026-05-07 00:26 | 33.53087 | -84.04041 | 22130 ft | 451 kts | 70° |
| 2026-05-07 00:27 | 33.53995 | -84.00431 | 22703 ft | 456 kts | 70° |
| 2026-05-07 00:27 | 33.54915 | -83.96767 | 23238 ft | 462 kts | 70° |
| 2026-05-07 00:27 | 33.55844 | -83.93055 | 23746 ft | 467 kts | 70° |
| 2026-05-07 00:27 | 33.56775 | -83.89308 | 24218 ft | 470 kts | 70° |
| 2026-05-07 00:28 | 33.57711 | -83.85545 | 24727 ft | 473 kts | 70° |
| 2026-05-07 00:28 | 33.58772 | -83.81816 | 25198 ft | 472 kts | 62° |
| 2026-05-07 00:28 | 33.60131 | -83.78223 | 25660 ft | 474 kts | 60° |
| 2026-05-07 00:28 | 33.61511 | -83.74612 | 26122 ft | 477 kts | 60° |
| 2026-05-07 00:29 | 33.62893 | -83.70974 | 26567 ft | 480 kts | 61° |
| 2026-05-07 00:29 | 33.64277 | -83.67316 | 27005 ft | 483 kts | 61° |
| 2026-05-07 00:30 | 33.67183 | -83.55522 | 28252 ft | 499 kts | 75° |
| 2026-05-07 00:30 | 33.67946 | -83.51448 | 28668 ft | 502 kts | 75° |
| 2026-05-07 00:30 | 33.68711 | -83.47352 | 29079 ft | 504 kts | 75° |
| 2026-05-07 00:30 | 33.69477 | -83.43234 | 29487 ft | 507 kts | 75° |
| 2026-05-07 00:31 | 33.70243 | -83.39097 | 29879 ft | 510 kts | 75° |
| 2026-05-07 00:31 | 33.71018 | -83.34932 | 30223 ft | 512 kts | 75° |
| 2026-05-07 00:31 | 33.71796 | -83.30738 | 30523 ft | 515 kts | 75° |
| 2026-05-07 00:31 | 33.72577 | -83.26530 | 30815 ft | 518 kts | 75° |
| 2026-05-07 00:32 | 33.73361 | -83.22290 | 31106 ft | 521 kts | 75° |
| 2026-05-07 00:32 | 33.74191 | -83.18040 | 31382 ft | 523 kts | 71° |
| 2026-05-07 00:32 | 33.75396 | -83.13928 | 31669 ft | 520 kts | 62° |
| 2026-05-07 00:32 | 33.77030 | -83.10085 | 32072 ft | 514 kts | 53° |
| 2026-05-07 00:33 | 33.78914 | -83.06448 | 32437 ft | 513 kts | 52° |
| 2026-05-07 00:33 | 33.80802 | -83.02803 | 32820 ft | 513 kts | 52° |
| 2026-05-07 00:33 | 33.82683 | -82.99161 | 33197 ft | 513 kts | 52° |
| 2026-05-07 00:33 | 33.84569 | -82.95509 | 33566 ft | 514 kts | 51° |
| 2026-05-07 00:34 | 33.86452 | -82.91857 | 33938 ft | 514 kts | 51° |
| 2026-05-07 00:34 | 33.88335 | -82.88205 | 34265 ft | 514 kts | 51° |
| 2026-05-07 00:34 | 33.90229 | -82.84540 | 34585 ft | 515 kts | 51° |
| 2026-05-07 00:34 | 33.92117 | -82.80879 | 34889 ft | 516 kts | 51° |
| 2026-05-07 00:35 | 33.94005 | -82.77206 | 35170 ft | 516 kts | 51° |
| 2026-05-07 00:35 | 33.95891 | -82.73528 | 35501 ft | 516 kts | 50° |
| 2026-05-07 00:35 | 33.97776 | -82.69841 | 35796 ft | 516 kts | 50° |
| 2026-05-07 00:35 | 33.99655 | -82.66154 | 36075 ft | 517 kts | 50° |
| 2026-05-07 00:36 | 34.01532 | -82.62452 | 36352 ft | 519 kts | 51° |
| 2026-05-07 00:36 | 34.03416 | -82.58726 | 36593 ft | 520 kts | 51° |
| 2026-05-07 00:36 | 34.05290 | -82.55002 | 36839 ft | 521 kts | 51° |
| 2026-05-07 00:36 | 34.07167 | -82.51267 | 36947 ft | 521 kts | 51° |
| 2026-05-07 00:37 | 34.10912 | -82.43808 | 36977 ft | 518 kts | 50° |
| 2026-05-07 00:37 | 34.14652 | -82.36390 | 36969 ft | 517 kts | 50° |
| 2026-05-07 00:38 | 34.18380 | -82.28980 | 36983 ft | 516 kts | 50° |
| 2026-05-07 00:38 | 34.22086 | -82.21557 | 36974 ft | 516 kts | 50° |
| 2026-05-07 00:39 | 34.25795 | -82.14139 | 36987 ft | 516 kts | 50° |
| 2026-05-07 00:39 | 34.29535 | -82.06712 | 36978 ft | 517 kts | 50° |
| 2026-05-07 00:40 | 34.33280 | -81.99300 | 36974 ft | 517 kts | 50° |
| 2026-05-07 00:40 | 34.36993 | -81.91905 | 36968 ft | 518 kts | 51° |
| 2026-05-07 00:41 | 34.40746 | -81.84402 | 36975 ft | 518 kts | 51° |
| 2026-05-07 00:41 | 34.44452 | -81.76993 | 36980 ft | 518 kts | 51° |
| 2026-05-07 00:42 | 34.48174 | -81.69515 | 36995 ft | 519 kts | 51° |
| 2026-05-07 00:42 | 34.51895 | -81.62013 | 36983 ft | 519 kts | 51° |
| 2026-05-07 00:43 | 34.55625 | -81.54511 | 36973 ft | 519 kts | 51° |
| 2026-05-07 00:43 | 34.59334 | -81.47015 | 36983 ft | 519 kts | 51° |
| 2026-05-07 00:44 | 34.63043 | -81.39512 | 36991 ft | 518 kts | 51° |
| 2026-05-07 00:44 | 34.66756 | -81.32007 | 37000 ft | 518 kts | 51° |
| 2026-05-07 00:45 | 34.70458 | -81.24482 | 37015 ft | 519 kts | 51° |
| 2026-05-07 00:45 | 34.74151 | -81.16956 | 37016 ft | 518 kts | 51° |
| 2026-05-07 00:46 | 34.77840 | -81.09421 | 37014 ft | 518 kts | 51° |
| 2026-05-07 00:46 | 34.81198 | -81.01607 | 37004 ft | 525 kts | 59° |
| 2026-05-07 00:47 | 34.84197 | -80.93500 | 36980 ft | 525 kts | 59° |
| 2026-05-07 00:47 | 34.87187 | -80.85387 | 36982 ft | 525 kts | 59° |
| 2026-05-07 00:48 | 34.90157 | -80.77281 | 37008 ft | 524 kts | 59° |
| 2026-05-07 00:48 | 34.93125 | -80.69153 | 36970 ft | 525 kts | 59° |
| 2026-05-07 00:49 | 34.96105 | -80.61018 | 36956 ft | 526 kts | 59° |
| 2026-05-07 00:49 | 34.99083 | -80.52855 | 36952 ft | 527 kts | 59° |
| 2026-05-07 00:50 | 35.02061 | -80.44685 | 36970 ft | 527 kts | 59° |
| 2026-05-07 00:50 | 35.05041 | -80.36505 | 36978 ft | 527 kts | 59° |
| 2026-05-07 00:51 | 35.07997 | -80.28329 | 36979 ft | 527 kts | 59° |
| 2026-05-07 00:51 | 35.10955 | -80.20139 | 36999 ft | 527 kts | 59° |
| 2026-05-07 00:52 | 35.13919 | -80.11928 | 36961 ft | 529 kts | 59° |
| 2026-05-07 00:52 | 35.16860 | -80.03689 | 36977 ft | 529 kts | 59° |
| 2026-05-07 00:53 | 35.19811 | -79.95459 | 36975 ft | 529 kts | 59° |
| 2026-05-07 00:53 | 35.22765 | -79.87219 | 36974 ft | 529 kts | 59° |
| 2026-05-07 00:54 | 35.25720 | -79.78975 | 36957 ft | 529 kts | 59° |
| 2026-05-07 00:54 | 35.28663 | -79.70722 | 36966 ft | 529 kts | 59° |
| 2026-05-07 00:55 | 35.31589 | -79.62457 | 37012 ft | 530 kts | 59° |
| 2026-05-07 00:55 | 35.34531 | -79.54145 | 36986 ft | 533 kts | 59° |
| 2026-05-07 00:56 | 35.37478 | -79.45806 | 36983 ft | 534 kts | 59° |
| 2026-05-07 00:56 | 35.40431 | -79.37447 | 36983 ft | 534 kts | 59° |
| 2026-05-07 00:57 | 35.43383 | -79.29100 | 36998 ft | 533 kts | 59° |
| 2026-05-07 00:57 | 35.46312 | -79.20751 | 36992 ft | 533 kts | 59° |
| 2026-05-07 00:58 | 35.49224 | -79.12401 | 36989 ft | 532 kts | 59° |
| 2026-05-07 00:58 | 35.52119 | -79.04032 | 36989 ft | 532 kts | 59° |
| 2026-05-07 00:59 | 35.56477 | -78.91519 | 36991 ft | 531 kts | 59° |
| 2026-05-07 01:00 | 35.59379 | -78.83172 | 36980 ft | 531 kts | 59° |
| 2026-05-07 01:00 | 35.62264 | -78.74828 | 36981 ft | 530 kts | 59° |
| 2026-05-07 01:01 | 35.65135 | -78.66473 | 36953 ft | 530 kts | 59° |
| 2026-05-07 01:01 | 35.67991 | -78.58130 | 36986 ft | 529 kts | 59° |
| 2026-05-07 01:02 | 35.70839 | -78.49799 | 36997 ft | 530 kts | 59° |
| 2026-05-07 01:02 | 35.73690 | -78.41447 | 36968 ft | 530 kts | 59° |
| 2026-05-07 01:03 | 35.76553 | -78.33074 | 36962 ft | 531 kts | 59° |
| 2026-05-07 01:03 | 35.79409 | -78.24692 | 36960 ft | 531 kts | 59° |
| 2026-05-07 01:04 | 35.82262 | -78.16289 | 36961 ft | 531 kts | 59° |
| 2026-05-07 01:04 | 35.85104 | -78.07885 | 36966 ft | 531 kts | 59° |
| 2026-05-07 01:05 | 35.87931 | -77.99477 | 36957 ft | 531 kts | 59° |
| 2026-05-07 01:05 | 35.90760 | -77.91056 | 36964 ft | 531 kts | 59° |
| 2026-05-07 01:06 | 35.93583 | -77.82631 | 36959 ft | 531 kts | 59° |
| 2026-05-07 01:06 | 35.96431 | -77.74228 | 36965 ft | 527 kts | 55° |
| 2026-05-07 01:06 | 35.98196 | -77.70329 | 36965 ft | 514 kts | 46° |
| 2026-05-07 01:07 | 36.00317 | -77.66844 | 36967 ft | 501 kts | 37° |
| 2026-05-07 01:07 | 36.05001 | -77.60563 | 36961 ft | 497 kts | 35° |
| 2026-05-07 01:08 | 36.09660 | -77.54323 | 37001 ft | 497 kts | 36° |
| 2026-05-07 01:08 | 36.14377 | -77.47986 | 36972 ft | 498 kts | 35° |
| 2026-05-07 01:09 | 36.18277 | -77.42736 | 36948 ft | 499 kts | 36° |
| 2026-05-07 01:09 | 36.22968 | -77.36399 | 36952 ft | 499 kts | 36° |
| 2026-05-07 01:10 | 36.27655 | -77.30055 | 36955 ft | 499 kts | 36° |
| 2026-05-07 01:10 | 36.32415 | -77.23832 | 36989 ft | 489 kts | 29° |
| 2026-05-07 01:11 | 36.37464 | -77.18186 | 36970 ft | 488 kts | 29° |
| 2026-05-07 01:11 | 36.42509 | -77.12560 | 36966 ft | 488 kts | 29° |
| 2026-05-07 01:12 | 36.47547 | -77.06922 | 36958 ft | 487 kts | 29° |
| 2026-05-07 01:12 | 36.52576 | -77.01265 | 36992 ft | 487 kts | 29° |
| 2026-05-07 01:13 | 36.57609 | -76.95602 | 36981 ft | 488 kts | 29° |
| 2026-05-07 01:13 | 36.62642 | -76.89940 | 36976 ft | 488 kts | 29° |
| 2026-05-07 01:14 | 36.67670 | -76.84253 | 36948 ft | 488 kts | 29° |
| 2026-05-07 01:14 | 36.72692 | -76.78551 | 36964 ft | 488 kts | 29° |
| 2026-05-07 01:15 | 36.77712 | -76.72870 | 36988 ft | 487 kts | 29° |
| 2026-05-07 01:15 | 36.82730 | -76.67188 | 36974 ft | 487 kts | 29° |
| 2026-05-07 01:16 | 36.87740 | -76.61477 | 36959 ft | 488 kts | 29° |
| 2026-05-07 01:16 | 36.92747 | -76.55762 | 36954 ft | 487 kts | 29° |
| 2026-05-07 01:17 | 36.97761 | -76.50041 | 36922 ft | 488 kts | 29° |
| 2026-05-07 01:17 | 37.02771 | -76.44315 | 36937 ft | 488 kts | 30° |
| 2026-05-07 01:18 | 37.07763 | -76.38580 | 36943 ft | 487 kts | 30° |
| 2026-05-07 01:18 | 37.12753 | -76.32847 | 36942 ft | 487 kts | 30° |
| 2026-05-07 01:19 | 37.17736 | -76.27101 | 36951 ft | 487 kts | 30° |
| 2026-05-07 01:19 | 37.22700 | -76.21380 | 36939 ft | 488 kts | 30° |
| 2026-05-07 01:20 | 37.27734 | -76.15588 | 36943 ft | 488 kts | 30° |
| 2026-05-07 01:20 | 37.32698 | -76.09857 | 36926 ft | 487 kts | 30° |
| 2026-05-07 01:21 | 37.37680 | -76.04070 | 36961 ft | 488 kts | 30° |
| 2026-05-07 01:21 | 37.42685 | -75.98249 | 36945 ft | 487 kts | 30° |
| 2026-05-07 01:22 | 37.47660 | -75.92459 | 36932 ft | 487 kts | 30° |
| 2026-05-07 01:22 | 37.52652 | -75.86703 | 36930 ft | 481 kts | 25° |
| 2026-05-07 01:22 | 37.55330 | -75.84316 | 36929 ft | 464 kts | 17° |
| 2026-05-07 01:23 | 37.58099 | -75.82246 | 36928 ft | 463 kts | 16° |
| 2026-05-07 01:23 | 37.63608 | -75.78137 | 36911 ft | 463 kts | 17° |
| 2026-05-07 01:24 | 37.69180 | -75.73965 | 36922 ft | 463 kts | 17° |
| 2026-05-07 01:24 | 37.74677 | -75.69835 | 36930 ft | 462 kts | 17° |
| 2026-05-07 01:25 | 37.80205 | -75.65676 | 36948 ft | 463 kts | 17° |
| 2026-05-07 01:25 | 37.85721 | -75.61468 | 36937 ft | 466 kts | 19° |
| 2026-05-07 01:26 | 37.91177 | -75.56820 | 36934 ft | 472 kts | 22° |
| 2026-05-07 01:26 | 37.96498 | -75.52015 | 36929 ft | 473 kts | 22° |
| 2026-05-07 01:27 | 38.01869 | -75.47222 | 36939 ft | 472 kts | 21° |
| 2026-05-07 01:27 | 38.07285 | -75.42531 | 36888 ft | 470 kts | 19° |
| 2026-05-07 01:28 | 38.12765 | -75.38070 | 36903 ft | 466 kts | 18° |
| 2026-05-07 01:28 | 38.15508 | -75.35889 | 36590 ft | 465 kts | 18° |
| 2026-05-07 01:28 | 38.18248 | -75.33708 | 35912 ft | 466 kts | 19° |
| 2026-05-07 01:28 | 38.21003 | -75.31497 | 35260 ft | 469 kts | 19° |
| 2026-05-07 01:29 | 38.23829 | -75.29518 | 35000 ft | 460 kts | 11° |
| 2026-05-07 01:29 | 38.26772 | -75.28051 | 34891 ft | 447 kts | 3° |
| 2026-05-07 01:29 | 38.29749 | -75.27133 | 34925 ft | 435 kts | 355° |
| 2026-05-07 01:30 | 38.35722 | -75.25903 | 34922 ft | 435 kts | 355° |
| 2026-05-07 01:30 | 38.41702 | -75.24659 | 34965 ft | 436 kts | 355° |
| 2026-05-07 01:31 | 38.47695 | -75.23398 | 34915 ft | 438 kts | 355° |
| 2026-05-07 01:31 | 38.53711 | -75.22122 | 34908 ft | 438 kts | 355° |
| 2026-05-07 01:32 | 38.59729 | -75.20857 | 34907 ft | 438 kts | 355° |
| 2026-05-07 01:32 | 38.65749 | -75.19592 | 34904 ft | 439 kts | 355° |
| 2026-05-07 01:32 | 38.68766 | -75.18700 | 34725 ft | 453 kts | 5° |
| 2026-05-07 01:33 | 38.71704 | -75.17049 | 34485 ft | 471 kts | 17° |
| 2026-05-07 01:33 | 38.74456 | -75.14646 | 34248 ft | 485 kts | 26° |
| 2026-05-07 01:33 | 38.77127 | -75.11998 | 34009 ft | 485 kts | 26° |
| 2026-05-07 01:33 | 38.79793 | -75.09363 | 33763 ft | 484 kts | 26° |
| 2026-05-07 01:34 | 38.82459 | -75.06736 | 33511 ft | 482 kts | 26° |
| 2026-05-07 01:34 | 38.85110 | -75.04127 | 33019 ft | 480 kts | 26° |
| 2026-05-07 01:34 | 38.87764 | -75.01521 | 32392 ft | 480 kts | 27° |
| 2026-05-07 01:34 | 38.90411 | -74.98926 | 31824 ft | 478 kts | 27° |
| 2026-05-07 01:35 | 38.93055 | -74.96333 | 31259 ft | 477 kts | 27° |
| 2026-05-07 01:35 | 38.95684 | -74.93747 | 30697 ft | 476 kts | 27° |
| 2026-05-07 01:35 | 38.98304 | -74.91166 | 30156 ft | 475 kts | 27° |
| 2026-05-07 01:35 | 39.00927 | -74.88578 | 29561 ft | 473 kts | 27° |
| 2026-05-07 01:36 | 39.03518 | -74.86014 | 29053 ft | 469 kts | 27° |
| 2026-05-07 01:36 | 39.06094 | -74.83458 | 28562 ft | 465 kts | 27° |
| 2026-05-07 01:36 | 39.08637 | -74.80929 | 28137 ft | 459 kts | 27° |
| 2026-05-07 01:36 | 39.11130 | -74.78417 | 27691 ft | 456 kts | 28° |
| 2026-05-07 01:37 | 39.13583 | -74.75839 | 27222 ft | 454 kts | 30° |
| 2026-05-07 01:37 | 39.15995 | -74.73222 | 26776 ft | 451 kts | 30° |
| 2026-05-07 01:37 | 39.18373 | -74.70601 | 26298 ft | 449 kts | 31° |
| 2026-05-07 01:37 | 39.20738 | -74.67986 | 25822 ft | 446 kts | 31° |
| 2026-05-07 01:38 | 39.23092 | -74.65397 | 25361 ft | 444 kts | 31° |
| 2026-05-07 01:38 | 39.25419 | -74.62858 | 24857 ft | 444 kts | 30° |
| 2026-05-07 01:38 | 39.27778 | -74.60302 | 24346 ft | 442 kts | 30° |
| 2026-05-07 01:38 | 39.30163 | -74.57729 | 23837 ft | 441 kts | 30° |
| 2026-05-07 01:39 | 39.32483 | -74.55229 | 23313 ft | 439 kts | 31° |
| 2026-05-07 01:39 | 39.34813 | -74.52698 | 22773 ft | 424 kts | 31° |
| 2026-05-07 01:39 | 39.37020 | -74.50280 | 22314 ft | 409 kts | 31° |
| 2026-05-07 01:39 | 39.39153 | -74.47945 | 21875 ft | 407 kts | 31° |
| 2026-05-07 01:40 | 39.41314 | -74.45592 | 21429 ft | 404 kts | 31° |
| 2026-05-07 01:40 | 39.43461 | -74.43262 | 21004 ft | 403 kts | 31° |
| 2026-05-07 01:40 | 39.45606 | -74.40936 | 20541 ft | 401 kts | 32° |
| 2026-05-07 01:40 | 39.47740 | -74.38617 | 20093 ft | 400 kts | 32° |
| 2026-05-07 01:41 | 39.49861 | -74.36303 | 19660 ft | 398 kts | 32° |
| 2026-05-07 01:41 | 39.51972 | -74.33989 | 19219 ft | 396 kts | 33° |
| 2026-05-07 01:41 | 39.54070 | -74.31685 | 18788 ft | 395 kts | 33° |
| 2026-05-07 01:41 | 39.56160 | -74.29390 | 18351 ft | 394 kts | 33° |
| 2026-05-07 01:42 | 39.58245 | -74.27102 | 17968 ft | 390 kts | 33° |
| 2026-05-07 01:42 | 39.60287 | -74.24854 | 17790 ft | 380 kts | 34° |
| 2026-05-07 01:42 | 39.62277 | -74.22656 | 17579 ft | 372 kts | 34° |
| 2026-05-07 01:42 | 39.64230 | -74.20500 | 17359 ft | 367 kts | 33° |
| 2026-05-07 01:43 | 39.66175 | -74.18363 | 17141 ft | 365 kts | 33° |
| 2026-05-07 01:43 | 39.68111 | -74.16241 | 16935 ft | 364 kts | 33° |
| 2026-05-07 01:43 | 39.70046 | -74.14121 | 16710 ft | 363 kts | 34° |
| 2026-05-07 01:43 | 39.71968 | -74.12010 | 16501 ft | 362 kts | 34° |
| 2026-05-07 01:44 | 39.73888 | -74.09899 | 16252 ft | 361 kts | 34° |
| 2026-05-07 01:44 | 39.75798 | -74.07792 | 15998 ft | 358 kts | 34° |
| 2026-05-07 01:44 | 39.77693 | -74.05694 | 15641 ft | 358 kts | 35° |
| 2026-05-07 01:44 | 39.79591 | -74.03592 | 15227 ft | 359 kts | 35° |
| 2026-05-07 01:45 | 39.81494 | -74.01485 | 14806 ft | 361 kts | 35° |
| 2026-05-07 01:45 | 39.83406 | -73.99375 | 14410 ft | 360 kts | 33° |
| 2026-05-07 01:45 | 39.85475 | -73.97608 | 14030 ft | 353 kts | 22° |
| 2026-05-07 01:45 | 39.87635 | -73.96085 | 13638 ft | 353 kts | 22° |
| 2026-05-07 01:46 | 39.89764 | -73.94586 | 13231 ft | 352 kts | 22° |
| 2026-05-07 01:46 | 39.91909 | -73.93076 | 12849 ft | 350 kts | 22° |
| 2026-05-07 01:46 | 39.94039 | -73.91563 | 12462 ft | 348 kts | 25° |
| 2026-05-07 01:46 | 39.96099 | -73.89901 | 12078 ft | 348 kts | 27° |
| 2026-05-07 01:47 | 39.98128 | -73.88206 | 11707 ft | 344 kts | 27° |
| 2026-05-07 01:47 | 40.00107 | -73.86543 | 11349 ft | 335 kts | 27° |
| 2026-05-07 01:47 | 40.02050 | -73.84898 | 10967 ft | 331 kts | 27° |
| 2026-05-07 01:47 | 40.03968 | -73.83272 | 10574 ft | 327 kts | 27° |
| 2026-05-07 01:48 | 40.05869 | -73.81660 | 10284 ft | 325 kts | 27° |
| 2026-05-07 01:48 | 40.07756 | -73.80058 | 10164 ft | 323 kts | 27° |
| 2026-05-07 01:48 | 40.09646 | -73.78457 | 10022 ft | 322 kts | 27° |
| 2026-05-07 01:48 | 40.11521 | -73.76866 | 10024 ft | 322 kts | 27° |
| 2026-05-07 01:49 | 40.13404 | -73.75270 | 10026 ft | 322 kts | 27° |
| 2026-05-07 01:49 | 40.15285 | -73.73677 | 9967 ft | 323 kts | 27° |
| 2026-05-07 01:49 | 40.17174 | -73.72074 | 9507 ft | 325 kts | 29° |
| 2026-05-07 01:49 | 40.18982 | -73.70275 | 9118 ft | 325 kts | 33° |
| 2026-05-07 01:50 | 40.20706 | -73.68414 | 8788 ft | 320 kts | 35° |
| 2026-05-07 01:50 | 40.22393 | -73.66530 | 8386 ft | 317 kts | 36° |
| 2026-05-07 01:50 | 40.24056 | -73.64653 | 7976 ft | 314 kts | 36° |
| 2026-05-07 01:50 | 40.25706 | -73.62793 | 7573 ft | 312 kts | 36° |
| 2026-05-07 01:51 | 40.27354 | -73.60951 | 7128 ft | 311 kts | 36° |
| 2026-05-07 01:51 | 40.28999 | -73.59126 | 6683 ft | 309 kts | 35° |
| 2026-05-07 01:51 | 40.30642 | -73.57330 | 6264 ft | 306 kts | 32° |
| 2026-05-07 01:51 | 40.32411 | -73.55839 | 5809 ft | 299 kts | 22° |
| 2026-05-07 01:52 | 40.34297 | -73.54784 | 5356 ft | 292 kts | 12° |
| 2026-05-07 01:52 | 40.36232 | -73.54151 | 4911 ft | 283 kts | 5° |
| 2026-05-07 01:52 | 40.38150 | -73.53692 | 4475 ft | 278 kts | 5° |
| 2026-05-07 01:52 | 40.40066 | -73.53226 | 4077 ft | 278 kts | 5° |
| 2026-05-07 01:53 | 40.41964 | -73.52759 | 4004 ft | 277 kts | 5° |
| 2026-05-07 01:53 | 40.43861 | -73.52296 | 4010 ft | 279 kts | 5° |
| 2026-05-07 01:53 | 40.45763 | -73.51832 | 4073 ft | 275 kts | 5° |
| 2026-05-07 01:53 | 40.47656 | -73.51311 | 4479 ft | 282 kts | 13° |
| 2026-05-07 01:54 | 40.49376 | -73.50011 | 4583 ft | 290 kts | 39° |
| 2026-05-07 01:54 | 40.50237 | -73.48686 | 4421 ft | 288 kts | 53° |
| 2026-05-07 01:54 | 40.51654 | -73.45737 | 4091 ft | 284 kts | 57° |
| 2026-05-07 01:54 | 40.52332 | -73.44264 | 4010 ft | 283 kts | 57° |
| 2026-05-07 01:55 | 40.53343 | -73.42051 | 4007 ft | 282 kts | 56° |
| 2026-05-07 01:55 | 40.54627 | -73.40155 | 4007 ft | 276 kts | 30° |
| 2026-05-07 01:55 | 40.56361 | -73.39263 | 4008 ft | 264 kts | 360° |
| 2026-05-07 01:55 | 40.58170 | -73.39305 | 4009 ft | 259 kts | 348° |
| 2026-05-07 01:56 | 40.59964 | -73.39545 | 4008 ft | 258 kts | 347° |
| 2026-05-07 01:56 | 40.61746 | -73.39815 | 4007 ft | 258 kts | 347° |
| 2026-05-07 01:56 | 40.63531 | -73.40082 | 4006 ft | 257 kts | 347° |
| 2026-05-07 01:56 | 40.65246 | -73.40328 | 3998 ft | 239 kts | 347° |
| 2026-05-07 01:57 | 40.66852 | -73.40544 | 4007 ft | 229 kts | 347° |
| 2026-05-07 01:57 | 40.68429 | -73.40746 | 4007 ft | 227 kts | 347° |
| 2026-05-07 01:57 | 40.70004 | -73.40951 | 4007 ft | 227 kts | 347° |
| 2026-05-07 01:57 | 40.71565 | -73.41214 | 4007 ft | 222 kts | 336° |
| 2026-05-07 01:58 | 40.72821 | -73.42207 | 3887 ft | 205 kts | 306° |
| 2026-05-07 01:58 | 40.73674 | -73.43685 | 3536 ft | 202 kts | 298° |
| 2026-05-07 01:58 | 40.74441 | -73.45230 | 3213 ft | 201 kts | 297° |
| 2026-05-07 01:58 | 40.75175 | -73.46744 | 3064 ft | 190 kts | 297° |
| 2026-05-07 01:59 | 40.75867 | -73.48164 | 3000 ft | 177 kts | 297° |
| 2026-05-07 01:59 | 40.76519 | -73.49486 | 3005 ft | 170 kts | 297° |
| 2026-05-07 01:59 | 40.77160 | -73.50781 | 2867 ft | 168 kts | 297° |
| 2026-05-07 01:59 | 40.77794 | -73.52066 | 2663 ft | 166 kts | 297° |
| 2026-05-07 02:00 | 40.78420 | -73.53332 | 2374 ft | 165 kts | 297° |
| 2026-05-07 02:00 | 40.79046 | -73.54602 | 2078 ft | 165 kts | 297° |
| 2026-05-07 02:00 | 40.79671 | -73.55870 | 1984 ft | 166 kts | 297° |
| 2026-05-07 02:00 | 40.80301 | -73.57150 | 1993 ft | 166 kts | 296° |
| 2026-05-07 02:01 | 40.80728 | -73.58524 | 1998 ft | 160 kts | 277° |
| 2026-05-07 02:01 | 40.80496 | -73.59923 | 1989 ft | 160 kts | 243° |
| 2026-05-07 02:01 | 40.79884 | -73.61161 | 1992 ft | 161 kts | 238° |
| 2026-05-07 02:01 | 40.79228 | -73.62363 | 1992 ft | 163 kts | 237° |
| 2026-05-07 02:02 | 40.78565 | -73.63573 | 1997 ft | 163 kts | 237° |
| 2026-05-07 02:02 | 40.77899 | -73.64781 | 2008 ft | 163 kts | 236° |
| 2026-05-07 02:02 | 40.76990 | -73.65708 | 2015 ft | 171 kts | 214° |
| 2026-05-07 02:02 | 40.75964 | -73.66499 | 2012 ft | 171 kts | 218° |
| 2026-05-07 02:03 | 40.74948 | -73.67307 | 2017 ft | 170 kts | 217° |
| 2026-05-07 02:03 | 40.73939 | -73.68104 | 2012 ft | 170 kts | 217° |
| 2026-05-07 02:03 | 40.72926 | -73.68900 | 1885 ft | 166 kts | 217° |
| 2026-05-07 02:03 | 40.72000 | -73.69621 | 1730 ft | 144 kts | 218° |
| 2026-05-07 02:04 | 40.71185 | -73.70259 | 1552 ft | 131 kts | 218° |
| 2026-05-07 02:04 | 40.70411 | -73.70870 | 1375 ft | 129 kts | 218° |
| 2026-05-07 02:04 | 40.69652 | -73.71465 | 1211 ft | 126 kts | 217° |
| 2026-05-07 02:04 | 40.68896 | -73.72059 | 1040 ft | 127 kts | 216° |
| 2026-05-07 02:05 | 40.68150 | -73.72648 | 886 ft | 128 kts | 215° |
| 2026-05-07 02:05 | 40.67390 | -73.73245 | 683 ft | 127 kts | 212° |
| 2026-05-07 02:05 | 40.66628 | -73.73836 | 519 ft | 129 kts | 210° |
| 2026-05-07 02:05 | 40.65863 | -73.74443 | 376 ft | 127 kts | 210° |
| 2026-05-07 02:06 | 40.65102 | -73.75032 | 205 ft | 127 kts | 210° |
| 2026-05-07 02:06 | 40.64341 | -73.75629 | 39 ft | 126 kts | 210° |
| 2026-05-07 02:06 | 40.63715 | -73.76119 | 23 ft | 76 kts | 211° |
| 2026-05-07 02:06 | 40.63397 | -73.76369 | 23 ft | 35 kts | 211° |
| 2026-05-07 02:07 | 40.63259 | -73.76592 | 21 ft | 21 kts | 243° |
| 2026-05-07 02:07 | 40.63237 | -73.76686 | 20 ft | 0 kts | 274° |
| 2026-05-07 02:07 | 40.63241 | -73.76709 | 20 ft | 5 kts | 285° |
| 2026-05-07 02:08 | 40.63250 | -73.76737 | 22 ft | 2 kts | 295° |
| 2026-05-07 02:08 | 40.63268 | -73.76781 | 20 ft | 9 kts | 300° |
| 2026-05-07 02:08 | 40.63311 | -73.76881 | 20 ft | 16 kts | 301° |
| 2026-05-07 02:08 | 40.63381 | -73.77033 | 20 ft | 23 kts | 301° |
| 2026-05-07 02:09 | 40.63471 | -73.77230 | 21 ft | 21 kts | 301° |
| 2026-05-07 02:09 | 40.63554 | -73.77413 | 21 ft | 25 kts | 301° |
| 2026-05-07 02:09 | 40.63622 | -73.77561 | 21 ft | 11 kts | 302° |
| 2026-05-07 02:09 | 40.63660 | -73.77631 | 20 ft | 9 kts | 303° |
| 2026-05-07 02:10 | 40.63661 | -73.77704 | 21 ft | 11 kts | 220° |
| 2026-05-07 02:10 | 40.63577 | -73.77773 | 20 ft | 17 kts | 213° |
| 2026-05-07 02:10 | 40.63605 | -73.77884 | 20 ft | 14 kts | 343° |